12°C
Woerden, The Nederlands
Taal:  Nederlands
Updated22/10/2018 07:50 
 
Station Historical Data
 
Daily Summary for October 22, 2018 Units:  Metric    English   Both
Next Day »
Daily Weekly Monthly Yearly Custom
  Current: High: Low: Average:
Temperature: 12.4 °C 13.6 °C 11.8 °C 12.9 °C
Dew Point: 10.3 °C 11.6 °C 9.2 °C 10.7 °C
Humidity: 87% 88% 84% 87%
Wind Speed: 20.4km/h 20.9km/h 1.9km/h 12.8km/h
Wind Gust: 11.3km/h 13.8km/h - -
WindNorth - - West
Pressure: 1028.9 hPa 1028.9 hPa 1025.5 hPa -
Precipitation: 0.0 mm      
Historical Graphs
 
 
Tabular Data for October 22, 2018
Time Temperature Dew Point Pressure Wind Wind Speed Wind Gust Humidity Rainfall Rate (Hourly) solar Conditions
00:03 11.9 °C 9.3 °C 1025.6 hPa South 6.4 km/h 5.1 km/h 84% 0.0 mm 0.00 W/m2 BKN
00:09 11.8 °C 9.2 °C 1025.6 hPa South 1.9 km/h 0.3 km/h 84% 0.0 mm 0.00 W/m2 BKN
00:13 11.9 °C 9.3 °C 1025.6 hPa South 8.0 km/h 4.8 km/h 84% 0.0 mm 0.00 W/m2 BKN
00:18 11.9 °C 9.3 °C 1025.5 hPa South 7.4 km/h 5.3 km/h 84% 0.0 mm 0.00 W/m2 BKN
00:24 12.0 °C 9.4 °C 1025.7 hPa South 7.4 km/h 3.4 km/h 84% 0.0 mm 0.00 W/m2 BKN
00:28 12.1 °C 9.4 °C 1025.7 hPa South 8.0 km/h 2.6 km/h 84% 0.0 mm 0.00 W/m2 BKN
00:33 12.2 °C 9.6 °C 1025.6 hPa South 5.6 km/h 2.6 km/h 84% 0.0 mm 0.00 W/m2 BKN
00:38 12.3 °C 9.7 °C 1025.8 hPa South 5.6 km/h 2.3 km/h 84% 0.0 mm 0.00 W/m2 BKN
00:43 12.3 °C 9.7 °C 1025.8 hPa South 7.4 km/h 2.3 km/h 84% 0.0 mm 0.00 W/m2 BKN
00:48 12.4 °C 9.8 °C 1025.8 hPa SSW 7.4 km/h 2.7 km/h 84% 0.0 mm 0.00 W/m2 BKN
00:52 12.4 °C 9.8 °C 1025.7 hPa SSW 7.4 km/h 2.9 km/h 84% 0.0 mm 0.00 W/m2 BKN
00:58 12.4 °C 9.8 °C 1025.7 hPa SSW 7.4 km/h 2.9 km/h 84% 0.0 mm 0.00 W/m2 BKN
01:03 12.4 °C 9.8 °C 1025.8 hPa SSW 5.6 km/h 2.7 km/h 84% 0.0 mm 0.00 W/m2 BKN
01:08 12.4 °C 9.8 °C 1025.8 hPa SSW 5.6 km/h 1.9 km/h 84% 0.0 mm 0.00 W/m2 BKN
01:13 12.4 °C 9.8 °C 1025.8 hPa SSW 3.7 km/h 0.8 km/h 84% 0.0 mm 0.00 W/m2 BKN
01:18 12.4 °C 10.0 °C 1025.8 hPa SSW 3.7 km/h 0.2 km/h 85% 0.0 mm 0.00 W/m2 BKN
01:23 12.5 °C 10.1 °C 1025.8 hPa SSW 1.9 km/h   85% 0.0 mm 0.00 W/m2 BKN
01:28 12.6 °C 10.1 °C 1025.9 hPa SSW 1.9 km/h 0.2 km/h 85% 0.0 mm 0.00 W/m2 BKN
01:34 12.6 °C 10.1 °C 1025.9 hPa SSW 5.6 km/h 0.6 km/h 85% 0.0 mm 0.00 W/m2 BKN
01:39 12.6 °C 10.2 °C 1025.9 hPa SSW 5.6 km/h 1.3 km/h 85% 0.0 mm 0.00 W/m2 BKN
01:43 12.7 °C 10.4 °C 1025.9 hPa SSW 5.6 km/h 1.9 km/h 86% 0.0 mm 0.00 W/m2 BKN
01:48 12.8 °C 10.5 °C 1025.9 hPa SSW 5.6 km/h 2.6 km/h 86% 0.0 mm 0.00 W/m2 BKN
01:54 12.8 °C 10.6 °C 1025.9 hPa SSW 5.6 km/h 2.9 km/h 86% 0.0 mm 0.00 W/m2 BKN
01:58 12.9 °C 10.7 °C 1025.9 hPa SSW 5.6 km/h 2.9 km/h 86% 0.0 mm 0.00 W/m2 BKN
02:04 13.1 °C 10.8 °C 1025.9 hPa SSW 5.6 km/h 2.9 km/h 86% 0.0 mm 0.00 W/m2 BKN
02:08 13.2 °C 10.9 °C 1025.9 hPa SW 5.6 km/h 2.7 km/h 86% 0.0 mm 0.00 W/m2 BKN
02:13 13.3 °C 11.1 °C 1025.8 hPa West 5.6 km/h 2.9 km/h 86% 0.0 mm 0.00 W/m2 BKN
02:19 13.4 °C 11.2 °C 1025.8 hPa WNW 9.3 km/h 3.4 km/h 86% 0.0 mm 0.00 W/m2 BKN
02:24 13.4 °C 11.2 °C 1025.8 hPa WNW 9.3 km/h 3.5 km/h 86% 0.0 mm 0.00 W/m2 BKN
02:28 13.4 °C 11.2 °C 1025.9 hPa WNW 9.3 km/h 3.4 km/h 86% 0.0 mm 0.00 W/m2 BKN
02:34 13.4 °C 11.2 °C 1025.9 hPa WNW 5.6 km/h 2.9 km/h 86% 0.0 mm 0.00 W/m2 BKN
02:39 13.4 °C 11.1 °C 1026.0 hPa WNW 8.0 km/h 3.2 km/h 86% 0.0 mm 0.00 W/m2 BKN
02:43 13.4 °C 11.3 °C 1026.0 hPa WNW 6.4 km/h 3.5 km/h 87% 0.0 mm 0.00 W/m2 BKN
02:49 13.4 °C 11.3 °C 1026.0 hPa NW 11.3 km/h 3.7 km/h 87% 0.0 mm 0.00 W/m2 BKN
02:54 13.3 °C 11.2 °C 1026.0 hPa NW 6.4 km/h 4.5 km/h 87% 0.0 mm 0.00 W/m2 BKN
02:59 13.3 °C 11.2 °C 1026.0 hPa NW 8.0 km/h 5.0 km/h 87% 0.0 mm 0.00 W/m2 BKN
03:03 13.3 °C 11.3 °C 1026.0 hPa NNW 14.8 km/h 6.0 km/h 88% 0.0 mm 0.00 W/m2 BKN
03:08 13.4 °C 11.4 °C 1026.1 hPa NNW 14.8 km/h 6.6 km/h 88% 0.0 mm 0.00 W/m2 BKN
03:14 13.5 °C 11.6 °C 1026.0 hPa NW 14.8 km/h 7.4 km/h 88% 0.0 mm 0.00 W/m2 BKN
03:19 13.6 °C 11.6 °C 1026.1 hPa North 16.7 km/h 8.0 km/h 88% 0.0 mm 0.00 W/m2 BKN
03:23 13.6 °C 11.6 °C 1026.2 hPa North 16.7 km/h 8.0 km/h 88% 0.0 mm 0.00 W/m2 BKN
03:28 13.6 °C 11.6 °C 1026.2 hPa North 16.7 km/h 7.6 km/h 88% 0.0 mm 0.00 W/m2 BKN
03:34 13.5 °C 11.6 °C 1026.2 hPa North 14.8 km/h 7.7 km/h 88% 0.0 mm 0.00 W/m2 BKN
03:38 13.4 °C 11.5 °C 1026.2 hPa NNW 14.8 km/h 7.9 km/h 88% 0.0 mm 0.00 W/m2 BKN
03:43 13.4 °C 11.5 °C 1026.2 hPa NNW 18.5 km/h 9.5 km/h 88% 0.0 mm 0.00 W/m2 BKN
03:48 13.4 °C 11.5 °C 1026.2 hPa NNW 18.5 km/h 10.0 km/h 88% 0.0 mm 0.00 W/m2 BKN
03:54 13.4 °C 11.5 °C 1026.4 hPa NNW 18.5 km/h 9.5 km/h 88% 0.0 mm 0.00 W/m2 BKN
03:59 13.4 °C 11.5 °C 1026.3 hPa North 20.9 km/h 9.8 km/h 88% 0.0 mm 0.00 W/m2 BKN
04:03 13.4 °C 11.5 °C 1026.4 hPa NW 20.4 km/h 10.5 km/h 88% 0.0 mm 0.00 W/m2 BKN
04:07 13.5 °C 11.6 °C 1026.4 hPa NNE 20.9 km/h 11.7 km/h 88% 0.0 mm 0.00 W/m2 BKN
04:12 13.4 °C 11.5 °C 1026.6 hPa North 20.4 km/h 13.5 km/h 88% 0.0 mm 0.00 W/m2 BKN
04:18 13.5 °C 11.6 °C 1026.5 hPa NNW 18.5 km/h 13.8 km/h 88% 0.0 mm 0.00 W/m2 BKN
04:23 13.4 °C 11.3 °C 1026.5 hPa NNW 18.5 km/h 12.1 km/h 87% 0.0 mm 0.00 W/m2 BKN
04:28 13.4 °C 11.3 °C 1026.6 hPa North 18.5 km/h 10.9 km/h 87% 0.0 mm 0.00 W/m2 BKN
04:33 13.4 °C 11.3 °C 1026.7 hPa NNW 18.5 km/h 9.3 km/h 87% 0.0 mm 0.00 W/m2 BKN
04:38 13.4 °C 11.3 °C 1026.7 hPa NNW 14.8 km/h 8.4 km/h 87% 0.0 mm 0.00 W/m2 BKN
04:43 13.3 °C 11.2 °C 1026.8 hPa North 14.8 km/h 8.5 km/h 87% 0.0 mm 0.00 W/m2 BKN
04:48 13.3 °C 11.3 °C 1026.9 hPa NW 18.5 km/h 9.8 km/h 88% 0.0 mm 0.00 W/m2 BKN
04:54 13.2 °C 11.3 °C 1026.9 hPa North 18.5 km/h 10.3 km/h 88% 0.0 mm 0.00 W/m2 BKN
04:58 13.2 °C 11.2 °C 1027.1 hPa North 18.5 km/h 10.0 km/h 88% 0.0 mm 0.00 W/m2 BKN
05:04 13.1 °C 11.0 °C 1027.2 hPa NNW 14.8 km/h 9.5 km/h 87% 0.0 mm 0.00 W/m2 BKN
05:08 13.1 °C 11.1 °C 1027.2 hPa North 16.7 km/h 8.8 km/h 88% 0.0 mm 0.00 W/m2 BKN
05:13 12.9 °C 11.0 °C 1027.2 hPa NW 16.7 km/h 8.8 km/h 88% 0.0 mm 0.00 W/m2 BKN
05:19 12.8 °C 10.9 °C 1027.2 hPa NNW 18.5 km/h 10.5 km/h 88% 0.0 mm 0.00 W/m2 BKN
05:23 12.8 °C 10.8 °C 1027.3 hPa NNW 18.5 km/h 11.4 km/h 88% 0.0 mm 0.00 W/m2 BKN
05:29 12.8 °C 10.8 °C 1027.3 hPa NE 18.5 km/h 12.1 km/h 88% 0.0 mm 0.00 W/m2 BKN
05:33 12.7 °C 10.8 °C 1027.4 hPa North 16.7 km/h 11.6 km/h 88% 0.0 mm 0.00 W/m2 BKN
05:38 12.7 °C 10.8 °C 1027.4 hPa NW 16.7 km/h 9.5 km/h 88% 0.0 mm 0.00 W/m2 BKN
05:43 12.8 °C 10.8 °C 1027.5 hPa North 14.8 km/h 8.8 km/h 88% 0.0 mm 0.00 W/m2 BKN
05:49 12.7 °C 10.8 °C 1027.6 hPa NNW 13.0 km/h 8.2 km/h 88% 0.0 mm 0.00 W/m2 BKN
05:53 12.7 °C 10.8 °C 1027.6 hPa NNE 13.0 km/h 8.5 km/h 88% 0.0 mm 0.00 W/m2 BKN
05:58 12.7 °C 10.8 °C 1027.6 hPa NNE 14.8 km/h 8.7 km/h 88% 0.0 mm 0.00 W/m2 BKN
06:03 12.8 °C 10.8 °C 1027.8 hPa NW 18.5 km/h 9.5 km/h 88% 0.0 mm 0.00 W/m2 BKN
06:07 12.7 °C 10.8 °C 1027.8 hPa NNW 18.5 km/h 8.7 km/h 88% 0.0 mm 0.00 W/m2 BKN
06:13 12.7 °C 10.8 °C 1027.9 hPa NNE 18.5 km/h 9.0 km/h 88% 0.0 mm 0.00 W/m2 BKN
06:18 12.7 °C 10.6 °C 1027.9 hPa NNW 18.5 km/h 8.8 km/h 87% 0.0 mm 0.00 W/m2 BKN
06:23 12.7 °C 10.6 °C 1027.9 hPa NNW 16.1 km/h 8.2 km/h 87% 0.0 mm 0.00 W/m2 BKN
06:28 12.8 °C 10.7 °C 1028.0 hPa NNW 18.5 km/h 9.2 km/h 87% 0.0 mm 0.00 W/m2 BKN
06:34 12.8 °C 10.7 °C 1028.0 hPa NNW 18.5 km/h 8.0 km/h 87% 0.0 mm 0.00 W/m2 BKN
06:39 12.8 °C 10.7 °C 1028.0 hPa NW 18.5 km/h 7.7 km/h 87% 0.0 mm 0.00 W/m2 BKN
06:44 12.8 °C 10.7 °C 1028.0 hPa NNW 12.9 km/h 6.1 km/h 87% 0.0 mm 0.00 W/m2 BKN
06:49 12.8 °C 10.7 °C 1028.1 hPa North 9.3 km/h 6.9 km/h 87% 0.0 mm 0.00 W/m2 BKN
06:53 12.8 °C 10.7 °C 1028.1 hPa NNW 14.5 km/h 6.8 km/h 87% 0.0 mm 0.00 W/m2 BKN
06:58 12.8 °C 10.7 °C 1028.2 hPa North 9.3 km/h 6.9 km/h 87% 0.0 mm 0.00 W/m2 BKN
07:04 12.8 °C 10.7 °C 1028.3 hPa NNW 14.8 km/h 7.1 km/h 87% 0.0 mm 0.00 W/m2 BKN
07:07 12.8 °C 10.7 °C 1028.3 hPa WNW 14.8 km/h 7.2 km/h 87% 0.0 mm 0.00 W/m2 BKN
07:13 12.8 °C 10.7 °C 1028.4 hPa NNW 16.1 km/h 8.0 km/h 87% 0.0 mm 0.00 W/m2 BKN
07:19 12.8 °C 10.7 °C 1028.5 hPa NNW 14.8 km/h 8.7 km/h 87% 0.0 mm 0.00 W/m2 BKN
07:23 12.8 °C 10.5 °C 1028.6 hPa NNW 16.1 km/h 8.5 km/h 86% 0.0 mm 0.00 W/m2 BKN
07:29 12.7 °C 10.4 °C 1028.5 hPa North 18.5 km/h 9.5 km/h 86% 0.0 mm 0.00 W/m2 BKN
07:34 12.7 °C 10.6 °C 1028.7 hPa NNW 18.5 km/h 10.0 km/h 87% 0.0 mm 0.00 W/m2 BKN
07:38 12.6 °C 10.5 °C 1028.7 hPa NNW 18.5 km/h 10.3 km/h 87% 0.0 mm 0.00 W/m2 BKN
07:43 12.6 °C 10.4 °C 1028.9 hPa NW 18.5 km/h 10.5 km/h 87% 0.0 mm 0.00 W/m2 BKN
07:48 12.4 °C 10.3 °C 1028.9 hPa North 20.4 km/h 11.3 km/h 87% 0.0 mm 0.00 W/m2 BKN
Juneau County Weather